createdAt,value
2022-11-29T00:00:24.328Z,7.70
2022-11-29T00:02:54.450Z,7.71
2022-11-29T00:05:26.523Z,7.70
2022-11-29T00:07:54.937Z,7.66
2022-11-29T00:10:23.312Z,7.68
2022-11-29T00:12:51.395Z,7.66
2022-11-29T00:15:19.480Z,7.63
2022-11-29T00:17:51.671Z,7.63
2022-11-29T00:20:23.267Z,7.59
2022-11-29T00:22:51.394Z,7.58
2022-11-29T00:25:20.350Z,7.57
2022-11-29T00:27:51.332Z,7.58
2022-11-29T00:30:21.798Z,7.58
2022-11-29T00:32:51.805Z,7.57
2022-11-29T00:35:19.877Z,7.57
2022-11-29T00:37:50.225Z,7.58
2022-11-29T00:40:20.749Z,7.58
2022-11-29T00:42:49.340Z,7.59
2022-11-29T00:45:17.790Z,7.58
2022-11-29T00:47:46.385Z,7.60
2022-11-29T00:50:16.075Z,7.60
2022-11-29T00:52:46.145Z,7.58
2022-11-29T00:55:14.862Z,7.54
2022-11-29T00:57:47.914Z,7.57
2022-11-29T01:00:17.264Z,7.55
2022-11-29T01:02:46.154Z,7.53
2022-11-29T01:05:17.757Z,7.54
2022-11-29T01:07:47.069Z,7.54
2022-11-29T01:10:17.127Z,7.55
2022-11-29T01:12:45.310Z,7.53
2022-11-29T01:15:14.044Z,7.53
2022-11-29T01:17:42.147Z,7.51
2022-11-29T01:20:17.071Z,7.50
2022-11-29T01:22:49.412Z,7.50
2022-11-29T01:25:19.308Z,7.52
2022-11-29T01:27:48.134Z,7.52
2022-11-29T01:30:18.759Z,7.52
2022-11-29T01:32:47.256Z,7.51
2022-11-29T01:35:18.551Z,7.52
2022-11-29T01:37:51.963Z,7.55
2022-11-29T01:40:20.276Z,7.55
2022-11-29T01:42:51.440Z,7.56
2022-11-29T01:45:24.061Z,7.58
2022-11-29T01:47:56.986Z,7.60
2022-11-29T01:50:27.034Z,7.61
2022-11-29T01:52:57.382Z,7.61
2022-11-29T01:55:27.442Z,7.62
2022-11-29T01:57:56.299Z,7.64
2022-11-29T02:00:25.529Z,7.63
2022-11-29T02:03:00.777Z,7.62
2022-11-29T02:05:36.256Z,7.63
2022-11-29T02:08:04.835Z,7.66
2022-11-29T02:10:45.501Z,7.64
2022-11-29T02:13:28.002Z,7.65
2022-11-29T02:16:04.943Z,7.60
2022-11-29T02:18:51.928Z,7.63
2022-11-29T02:21:40.828Z,7.64
2022-11-29T02:24:45.636Z,7.64
2022-11-29T02:27:52.180Z,7.64
2022-11-29T02:30:26.010Z,7.64
2022-11-29T02:33:27.709Z,7.62
2022-11-29T02:36:30.106Z,7.64
2022-11-29T02:39:15.626Z,7.65
2022-11-29T02:42:06.740Z,7.63
2022-11-29T02:44:53.791Z,7.66
2022-11-29T02:47:30.357Z,7.69
2022-11-29T02:50:14.186Z,7.69
2022-11-29T02:52:54.536Z,7.70
2022-11-29T02:55:30.665Z,7.73
2022-11-29T02:58:05.058Z,7.71
2022-11-29T03:00:38.151Z,7.69
2022-11-29T03:03:14.914Z,7.69
2022-11-29T03:05:50.937Z,7.69
2022-11-29T03:08:29.258Z,7.72
2022-11-29T03:11:04.679Z,7.71
2022-11-29T03:13:47.600Z,7.71
2022-11-29T03:16:29.722Z,7.73
2022-11-29T03:19:07.139Z,7.70
2022-11-29T03:21:47.191Z,7.69
2022-11-29T03:24:27.223Z,7.70
2022-11-29T03:27:03.267Z,7.70
2022-11-29T03:29:41.482Z,7.70
2022-11-29T03:32:17.438Z,7.71
2022-11-29T03:34:57.900Z,7.71
2022-11-29T03:37:31.369Z,7.71
2022-11-29T03:40:07.641Z,7.72
2022-11-29T03:42:43.819Z,7.73
2022-11-29T03:45:18.898Z,7.71
2022-11-29T03:47:58.949Z,7.70
2022-11-29T03:50:35.167Z,7.70
2022-11-29T03:53:14.858Z,7.70
2022-11-29T03:56:05.171Z,7.70
2022-11-29T03:58:55.024Z,7.72
2022-11-29T04:01:48.189Z,7.71
2022-11-29T04:04:49.434Z,7.71
2022-11-29T04:07:35.702Z,7.71
2022-11-29T04:10:22.680Z,7.70
2022-11-29T04:13:11.055Z,7.70
2022-11-29T04:16:03.166Z,7.69
2022-11-29T04:19:05.235Z,7.70
2022-11-29T04:21:53.205Z,7.70
2022-11-29T04:24:51.980Z,7.70
2022-11-29T04:27:45.360Z,7.72
2022-11-29T04:30:21.402Z,7.74
2022-11-29T04:33:29.670Z,7.74
2022-11-29T04:36:27.768Z,7.77
2022-11-29T04:39:16.646Z,7.78
2022-11-29T04:42:14.869Z,7.76
2022-11-29T04:44:56.991Z,7.75
2022-11-29T04:47:52.379Z,7.74
2022-11-29T04:50:39.202Z,7.73
2022-11-29T04:53:29.945Z,7.75
2022-11-29T04:56:07.986Z,7.76
2022-11-29T04:58:41.752Z,7.78
2022-11-29T05:01:21.068Z,7.79
2022-11-29T05:03:58.176Z,7.81
2022-11-29T05:06:37.121Z,7.81
2022-11-29T05:09:16.843Z,7.80
2022-11-29T05:11:54.407Z,7.79
2022-11-29T05:14:36.804Z,7.79
2022-11-29T05:17:26.069Z,7.79
2022-11-29T05:20:09.535Z,7.78
2022-11-29T05:22:47.401Z,7.79
2022-11-29T05:25:31.585Z,7.80
2022-11-29T05:28:10.209Z,7.80
2022-11-29T05:30:55.132Z,7.80
2022-11-29T05:33:37.622Z,7.79
2022-11-29T05:36:24.964Z,7.81
2022-11-29T05:39:07.262Z,7.81
2022-11-29T05:41:52.536Z,7.79
2022-11-29T05:44:32.752Z,7.79
2022-11-29T05:47:10.036Z,7.79
2022-11-29T05:49:44.722Z,7.79
2022-11-29T05:52:24.490Z,7.80
2022-11-29T05:55:07.339Z,7.80
2022-11-29T05:57:44.569Z,7.79
2022-11-29T06:00:16.773Z,7.79
2022-11-29T06:02:59.105Z,7.79
2022-11-29T06:05:36.726Z,7.80
2022-11-29T06:08:17.663Z,7.80
2022-11-29T06:10:57.682Z,7.79
2022-11-29T06:13:38.306Z,7.80
2022-11-29T06:16:32.332Z,7.81
2022-11-29T06:19:28.125Z,7.80
2022-11-29T06:22:11.669Z,7.80
2022-11-29T06:24:56.428Z,7.81
2022-11-29T06:27:44.548Z,7.81
2022-11-29T06:30:16.039Z,7.82
2022-11-29T06:32:51.841Z,7.82
2022-11-29T06:35:37.588Z,7.83
2022-11-29T06:38:13.728Z,7.84
2022-11-29T06:40:46.410Z,7.83
2022-11-29T06:43:15.689Z,7.84
2022-11-29T06:45:50.371Z,7.84
2022-11-29T06:48:25.867Z,7.86
2022-11-29T06:51:01.384Z,7.86
2022-11-29T06:53:39.774Z,7.87
2022-11-29T06:56:20.599Z,7.87
2022-11-29T06:59:00.893Z,7.88
2022-11-29T07:01:40.579Z,7.91
2022-11-29T07:04:31.258Z,7.91
2022-11-29T07:07:01.059Z,7.92
2022-11-29T07:09:35.046Z,7.96
2022-11-29T07:12:08.396Z,7.95
2022-11-29T07:14:37.326Z,7.98
2022-11-29T07:17:11.326Z,8.01
2022-11-29T07:19:52.946Z,8.00
2022-11-29T07:22:41.682Z,8.02
2022-11-29T07:25:21.302Z,8.06
2022-11-29T07:28:04.168Z,8.10
2022-11-29T07:30:43.010Z,8.11
2022-11-29T07:33:19.874Z,8.11
2022-11-29T07:35:56.284Z,8.10
2022-11-29T07:38:32.950Z,8.08
2022-11-29T07:41:13.061Z,8.10
2022-11-29T07:43:52.750Z,8.12
2022-11-29T07:46:23.891Z,8.15
2022-11-29T07:48:54.133Z,8.15
2022-11-29T07:51:22.687Z,8.19
2022-11-29T07:53:50.777Z,8.22
2022-11-29T07:56:19.192Z,8.25
2022-11-29T07:58:49.280Z,8.29
2022-11-29T08:01:17.727Z,8.33
2022-11-29T08:03:46.203Z,8.33
2022-11-29T08:06:15.020Z,8.35
2022-11-29T08:08:44.383Z,8.38
2022-11-29T08:11:13.752Z,8.40
2022-11-29T08:13:44.023Z,8.42
2022-11-29T08:16:20.497Z,8.43
2022-11-29T08:18:49.686Z,8.46
2022-11-29T08:21:20.503Z,8.45
2022-11-29T08:23:50.779Z,8.44
2022-11-29T08:26:26.920Z,8.44
2022-11-29T08:28:59.648Z,8.45
2022-11-29T08:31:32.311Z,8.49
2022-11-29T08:34:00.814Z,8.51
2022-11-29T08:36:29.838Z,8.53
2022-11-29T08:39:04.709Z,8.54
2022-11-29T08:41:36.262Z,8.54
2022-11-29T08:44:05.738Z,8.54
2022-11-29T08:46:52.874Z,8.56
2022-11-29T08:49:23.669Z,8.54
2022-11-29T08:51:53.024Z,8.54
2022-11-29T08:54:20.019Z,8.54
2022-11-29T09:00:09.679Z,8.57
2022-11-29T09:02:39.236Z,8.58
2022-11-29T09:05:10.184Z,8.61
2022-11-29T09:07:42.181Z,8.60
2022-11-29T09:10:12.227Z,8.63
2022-11-29T09:12:41.387Z,8.66
2022-11-29T09:15:12.053Z,8.57
2022-11-29T09:17:44.610Z,8.55
2022-11-29T09:20:13.618Z,8.55
2022-11-29T09:22:46.734Z,8.52
2022-11-29T09:25:16.119Z,8.56
2022-11-29T09:27:44.488Z,8.60
2022-11-29T09:30:19.279Z,8.61
2022-11-29T09:32:52.834Z,8.65
2022-11-29T09:35:22.104Z,8.67
2022-11-29T09:37:51.740Z,8.55
2022-11-29T09:40:26.048Z,8.60
2022-11-29T09:43:01.147Z,8.67
2022-11-29T09:45:33.845Z,8.67
2022-11-29T09:48:27.995Z,8.61
2022-11-29T09:51:10.359Z,8.66
2022-11-29T09:53:56.491Z,8.63
2022-11-29T09:56:34.922Z,8.69
2022-11-29T09:59:06.014Z,8.74
2022-11-29T10:01:39.373Z,8.76
2022-11-29T10:04:17.272Z,8.74
2022-11-29T10:06:55.609Z,8.69
2022-11-29T10:09:33.561Z,8.64
2022-11-29T10:12:13.886Z,8.51
2022-11-29T10:14:52.246Z,8.54
2022-11-29T10:17:38.158Z,8.54
2022-11-29T10:20:13.730Z,8.62
2022-11-29T10:22:53.543Z,8.64
2022-11-29T10:25:26.671Z,8.68
2022-11-29T10:27:55.939Z,8.63
2022-11-29T10:30:24.602Z,8.72
2022-11-29T10:32:59.226Z,8.76
2022-11-29T10:35:30.418Z,8.69
2022-11-29T10:40:54.263Z,8.82
2022-11-29T10:43:24.994Z,8.73
2022-11-29T10:45:56.332Z,8.71
2022-11-29T10:48:32.104Z,8.78
2022-11-29T10:51:05.301Z,8.88
2022-11-29T10:53:38.610Z,8.88
2022-11-29T10:56:09.466Z,8.88
2022-11-29T10:58:37.643Z,8.84
2022-11-29T11:01:12.126Z,8.85
2022-11-29T11:03:48.945Z,8.86
2022-11-29T11:06:26.417Z,8.92
2022-11-29T11:08:57.567Z,8.96
2022-11-29T11:11:30.747Z,8.98
2022-11-29T11:14:01.498Z,9.01
2022-11-29T11:16:36.754Z,9.04
2022-11-29T11:19:28.314Z,9.01
2022-11-29T11:21:59.984Z,9.00
2022-11-29T11:24:31.234Z,9.00
2022-11-29T11:27:00.456Z,9.03
2022-11-29T11:29:36.621Z,9.03
2022-11-29T11:32:09.168Z,9.04
2022-11-29T11:34:52.741Z,9.06
2022-11-29T11:37:26.913Z,9.06
2022-11-29T11:39:57.506Z,9.09
2022-11-29T11:42:40.890Z,9.12
2022-11-29T11:45:31.785Z,9.14
2022-11-29T11:48:03.545Z,9.16
2022-11-29T11:50:34.900Z,9.17
2022-11-29T11:53:08.539Z,9.12
2022-11-29T11:55:40.765Z,9.09
2022-11-29T11:58:18.479Z,9.15
2022-11-29T12:01:05.737Z,9.16
2022-11-29T12:03:39.387Z,9.20
2022-11-29T12:06:27.620Z,9.23
2022-11-29T12:09:03.700Z,9.25
2022-11-29T12:11:42.915Z,9.28
2022-11-29T12:14:20.036Z,9.33
2022-11-29T12:16:51.093Z,9.34
2022-11-29T12:19:24.643Z,9.36
2022-11-29T12:22:00.709Z,9.37
2022-11-29T12:24:36.787Z,9.37
2022-11-29T12:27:12.179Z,9.38
2022-11-29T12:29:41.710Z,9.33
2022-11-29T12:32:25.868Z,9.31
2022-11-29T12:35:14.774Z,9.31
2022-11-29T12:37:56.803Z,9.31
2022-11-29T12:40:38.452Z,9.30
2022-11-29T12:43:18.553Z,9.29
2022-11-29T12:45:54.638Z,9.29
2022-11-29T12:48:35.209Z,9.35
2022-11-29T12:51:13.710Z,9.39
2022-11-29T12:53:57.064Z,9.43
2022-11-29T12:56:38.467Z,9.46
2022-11-29T12:59:27.242Z,9.49
2022-11-29T13:02:21.688Z,9.53
2022-11-29T13:05:15.254Z,9.59
2022-11-29T13:08:00.641Z,9.60
2022-11-29T13:10:53.421Z,9.60
2022-11-29T13:13:40.008Z,9.61
2022-11-29T13:16:22.983Z,9.69
2022-11-29T13:19:03.804Z,9.72
2022-11-29T13:21:41.602Z,9.75
2022-11-29T13:24:17.722Z,9.77
2022-11-29T13:26:47.447Z,9.80
2022-11-29T13:29:20.024Z,9.79
2022-11-29T13:31:52.453Z,9.76
2022-11-29T13:34:27.045Z,9.69
2022-11-29T13:37:08.929Z,9.69
2022-11-29T13:39:52.178Z,9.65
2022-11-29T13:42:29.232Z,9.62
2022-11-29T13:45:05.659Z,9.61
2022-11-29T13:47:48.790Z,9.59
2022-11-29T13:50:46.566Z,9.58
2022-11-29T13:53:18.933Z,9.58
2022-11-29T13:56:00.213Z,9.56
2022-11-29T13:58:41.624Z,9.55
2022-11-29T14:01:17.181Z,9.51
2022-11-29T14:04:01.673Z,9.48
2022-11-29T14:06:35.199Z,9.46
2022-11-29T14:09:29.651Z,9.45
2022-11-29T14:12:07.566Z,9.46
2022-11-29T14:14:49.682Z,9.45
2022-11-29T14:18:13.424Z,9.41
2022-11-29T14:20:55.394Z,9.38
2022-11-29T14:23:41.613Z,9.35
2022-11-29T14:26:29.167Z,9.34
2022-11-29T14:28:59.392Z,9.33
2022-11-29T14:31:54.207Z,9.36
2022-11-29T14:34:45.137Z,9.37
2022-11-29T14:37:37.310Z,9.35
2022-11-29T14:40:22.001Z,9.33
2022-11-29T14:42:52.833Z,9.32
2022-11-29T14:45:31.847Z,9.33
2022-11-29T14:48:01.786Z,9.32
2022-11-29T14:50:36.961Z,9.32
2022-11-29T14:53:28.575Z,9.23
2022-11-29T14:56:31.537Z,9.23
2022-11-29T14:59:33.091Z,9.24
2022-11-29T15:02:05.520Z,9.21
2022-11-29T15:04:38.148Z,9.21
2022-11-29T15:07:08.686Z,9.22
2022-11-29T15:09:39.474Z,9.22
2022-11-29T15:12:11.320Z,9.20
2022-11-29T15:14:50.755Z,9.18
2022-11-29T15:17:28.830Z,9.19
2022-11-29T15:20:36.249Z,9.16
2022-11-29T15:23:07.726Z,9.15
2022-11-29T15:25:47.511Z,9.17
2022-11-29T15:28:23.765Z,9.19
2022-11-29T15:31:04.029Z,9.18
2022-11-29T15:33:38.016Z,9.16
2022-11-29T15:36:12.490Z,9.14
2022-11-29T15:38:45.639Z,9.13
2022-11-29T15:41:23.330Z,9.11
2022-11-29T15:43:55.177Z,9.11
2022-11-29T15:46:27.947Z,9.09
2022-11-29T15:48:56.881Z,9.11
2022-11-29T15:51:31.282Z,9.09
2022-11-29T15:54:12.706Z,9.08
2022-11-29T15:56:48.442Z,9.06
2022-11-29T15:59:23.545Z,9.06
2022-11-29T16:01:57.339Z,9.04
2022-11-29T16:04:27.196Z,9.03
2022-11-29T16:06:58.907Z,9.03
2022-11-29T16:09:35.935Z,9.00
2022-11-29T16:12:13.327Z,9.01
2022-11-29T16:14:50.662Z,9.00
2022-11-29T16:17:20.091Z,8.97
2022-11-29T16:19:49.324Z,8.97
2022-11-29T16:22:24.303Z,8.96
2022-11-29T16:25:01.965Z,8.96
2022-11-29T16:27:37.900Z,8.98
2022-11-29T16:30:07.938Z,8.99
2022-11-29T16:32:39.209Z,8.99
2022-11-29T16:35:13.861Z,8.98
2022-11-29T16:37:46.930Z,8.96
2022-11-29T16:40:26.076Z,8.93
2022-11-29T16:43:24.097Z,8.89
2022-11-29T16:46:32.356Z,8.86
2022-11-29T16:49:04.114Z,8.83
2022-11-29T16:51:39.864Z,8.78
2022-11-29T16:54:33.825Z,8.78
2022-11-29T16:57:05.707Z,8.74
2022-11-29T16:59:36.488Z,8.72
2022-11-29T17:02:07.300Z,8.70
2022-11-29T17:04:36.512Z,8.67
2022-11-29T17:07:10.523Z,8.65
2022-11-29T17:09:40.656Z,8.63
2022-11-29T17:12:14.061Z,8.61
2022-11-29T17:14:44.251Z,8.61
2022-11-29T17:17:15.058Z,8.60
2022-11-29T17:19:46.170Z,8.59
2022-11-29T17:22:15.373Z,8.60
2022-11-29T17:24:47.980Z,8.59
2022-11-29T17:27:20.844Z,8.61
2022-11-29T17:29:50.277Z,8.59
2022-11-29T17:32:26.363Z,8.59
2022-11-29T17:34:58.196Z,8.60
2022-11-29T17:37:26.479Z,8.58
2022-11-29T17:39:54.447Z,8.59
2022-11-29T17:42:23.233Z,8.57
2022-11-29T17:44:53.607Z,8.56
2022-11-29T17:47:25.004Z,8.56
2022-11-29T17:49:56.080Z,8.56
2022-11-29T17:52:24.609Z,8.57
2022-11-29T17:54:53.091Z,8.54
2022-11-29T17:57:22.801Z,8.52
2022-11-29T17:59:50.720Z,8.52
2022-11-29T18:02:21.971Z,8.52
2022-11-29T18:04:51.620Z,8.51
2022-11-29T18:07:20.035Z,8.53
2022-11-29T18:09:49.795Z,8.50
2022-11-29T18:12:20.517Z,8.50
2022-11-29T18:14:50.128Z,8.49
2022-11-29T18:17:21.346Z,8.50
2022-11-29T18:19:54.077Z,8.46
2022-11-29T18:22:22.961Z,8.45
2022-11-29T18:24:51.777Z,8.45
2022-11-29T18:27:21.608Z,8.44
2022-11-29T18:29:50.376Z,8.41
2022-11-29T18:32:18.779Z,8.40
2022-11-29T18:34:47.829Z,8.41
2022-11-29T18:37:28.394Z,8.39
2022-11-29T18:40:06.448Z,8.38
2022-11-29T18:42:34.468Z,8.37
2022-11-29T18:45:02.543Z,8.36
2022-11-29T18:47:33.450Z,8.35
2022-11-29T18:50:02.267Z,8.36
2022-11-29T18:52:35.338Z,8.34
2022-11-29T18:55:09.294Z,8.32
2022-11-29T18:57:37.736Z,8.31
2022-11-29T19:00:07.508Z,8.30
2022-11-29T19:02:36.854Z,8.27
2022-11-29T19:05:05.578Z,8.27
2022-11-29T19:07:38.845Z,8.26
2022-11-29T19:10:08.684Z,8.23
2022-11-29T19:12:39.170Z,8.23
2022-11-29T19:15:09.064Z,8.21
2022-11-29T19:17:42.853Z,8.21
2022-11-29T19:20:13.434Z,8.20
2022-11-29T19:22:43.380Z,8.19
2022-11-29T19:25:14.442Z,8.18
2022-11-29T19:27:48.444Z,8.19
2022-11-29T19:30:17.629Z,8.19
2022-11-29T19:32:45.937Z,8.17
2022-11-29T19:35:14.174Z,8.19
2022-11-29T19:37:48.681Z,8.17
2022-11-29T19:40:21.191Z,8.16
2022-11-29T19:42:49.589Z,8.15
2022-11-29T19:45:23.276Z,8.16
2022-11-29T19:47:54.871Z,8.16
2022-11-29T19:50:24.537Z,8.16
2022-11-29T19:52:55.332Z,8.19
2022-11-29T19:55:24.748Z,8.21
2022-11-29T19:57:53.532Z,8.19
2022-11-29T20:00:24.661Z,8.21
2022-11-29T20:02:52.840Z,8.22
2022-11-29T20:05:20.951Z,8.26
2022-11-29T20:07:49.971Z,8.26
2022-11-29T20:10:20.448Z,8.27
2022-11-29T20:12:50.911Z,8.29
2022-11-29T20:15:19.148Z,8.30
2022-11-29T20:17:48.962Z,8.32
2022-11-29T20:20:22.292Z,8.33
2022-11-29T20:22:54.663Z,8.33
2022-11-29T20:25:27.267Z,8.35
2022-11-29T20:27:56.263Z,8.35
2022-11-29T20:30:26.147Z,8.34
2022-11-29T20:32:56.775Z,8.34
2022-11-29T20:35:27.371Z,8.35
2022-11-29T20:38:08.166Z,8.32
2022-11-29T20:40:46.531Z,8.27
2022-11-29T20:43:24.980Z,8.30
2022-11-29T20:45:53.806Z,8.33
2022-11-29T20:48:24.401Z,8.34
2022-11-29T20:51:00.742Z,8.34
2022-11-29T20:53:35.435Z,8.36
2022-11-29T20:56:06.562Z,8.35
2022-11-29T20:58:36.170Z,8.37
2022-11-29T21:01:08.297Z,8.37
2022-11-29T21:03:39.095Z,8.36
2022-11-29T21:06:10.223Z,8.37
2022-11-29T21:08:38.771Z,8.35
2022-11-29T21:11:10.542Z,8.37
2022-11-29T21:13:40.064Z,8.36
2022-11-29T21:16:11.824Z,8.37
2022-11-29T21:18:44.014Z,8.38
2022-11-29T21:21:25.050Z,8.37
2022-11-29T21:24:03.747Z,8.37
2022-11-29T21:26:41.979Z,8.37
2022-11-29T21:29:17.012Z,8.38
2022-11-29T21:31:46.516Z,8.38
2022-11-29T21:34:15.182Z,8.38
2022-11-29T21:36:44.917Z,8.38
2022-11-29T21:39:18.867Z,8.39
2022-11-29T21:41:49.977Z,8.38
2022-11-29T21:44:18.344Z,8.39
2022-11-29T21:46:47.524Z,8.41
2022-11-29T21:49:16.648Z,8.40
2022-11-29T21:51:45.336Z,8.40
2022-11-29T21:54:14.844Z,8.39
2022-11-29T21:56:43.637Z,8.38
2022-11-29T21:59:13.573Z,8.37
2022-11-29T22:01:43.046Z,8.35
2022-11-29T22:04:11.884Z,8.34
2022-11-29T22:06:40.833Z,8.34
2022-11-29T22:09:09.207Z,8.35
2022-11-29T22:11:38.399Z,8.33
2022-11-29T22:14:18.363Z,8.34
2022-11-29T22:16:50.382Z,8.31
2022-11-29T22:19:20.693Z,8.31
2022-11-29T22:21:51.153Z,8.33
2022-11-29T22:24:21.636Z,8.33
2022-11-29T22:26:51.646Z,8.34
2022-11-29T22:29:20.945Z,8.33
2022-11-29T22:31:52.969Z,8.32
2022-11-29T22:34:21.725Z,8.30
2022-11-29T22:36:50.205Z,8.32
2022-11-29T22:39:19.306Z,8.33
2022-11-29T22:41:54.693Z,8.33
2022-11-29T22:44:23.624Z,8.31
2022-11-29T22:46:56.263Z,8.32
2022-11-29T22:49:25.085Z,8.32
2022-11-29T22:51:53.460Z,8.32
2022-11-29T22:54:21.562Z,8.34
2022-11-29T22:56:52.213Z,8.36
2022-11-29T22:59:20.502Z,8.36
2022-11-29T23:01:49.782Z,8.37
2022-11-29T23:04:20.026Z,8.38
2022-11-29T23:06:48.237Z,8.38
2022-11-29T23:09:21.676Z,8.39
2022-11-29T23:11:58.660Z,8.38
2022-11-29T23:14:28.125Z,8.40
2022-11-29T23:16:56.983Z,8.41
2022-11-29T23:19:27.459Z,8.40
2022-11-29T23:21:56.531Z,8.40
2022-11-29T23:24:25.779Z,8.41
2022-11-29T23:26:55.832Z,8.41
2022-11-29T23:29:27.413Z,8.38
2022-11-29T23:31:55.390Z,8.38
2022-11-29T23:34:29.392Z,8.39
2022-11-29T23:36:57.430Z,8.38
2022-11-29T23:39:30.286Z,8.40
2022-11-29T23:41:59.738Z,8.42
2022-11-29T23:44:31.234Z,8.44
2022-11-29T23:47:03.482Z,8.42
2022-11-29T23:49:35.293Z,8.43
2022-11-29T23:52:04.217Z,8.45
2022-11-29T23:54:32.294Z,8.45
2022-11-29T23:57:00.895Z,8.46
2022-11-29T23:59:30.474Z,8.47
